< < Back
Terminal Aerodrome Forecast


Current Version              Previous Versions:   1  2  3  4  5  6  7  8  9  

Terminal Aerodrome Forecast

949
FTUS44 KMRX 060520
TAFCHA
TAF
KCHA 060520Z 0606/0706 34005KT P6SM SKC
     FM061500 36012G22KT P6SM SCT050
     FM070000 34004KT P6SM SKC=

Latest METAR

709
SAUS80 KWBC 061600 RRA
MTRCHA
METAR KCHA 061553Z 02010KT 10SM SCT050 SCT250 19/06 A2999 RMK AO2 SLP152
T01940056


USA.gov is the U.S. government's official web portal to all federal, state and local government web resources and services.